Time;durP1;ratioP1;P1;durP2;ratioP2;P2;SDS_P1;SDS_P2;PMS_P1;PMS_P2;Temp;Humidity;BMP_temperature;BMP_pressure;BME280_temperature;BME280_humidity;BME280_pressure;Samples;Min_cycle;Max_cycle;Signal;HPM_P1;HPM_P2
2022/12/09 00:00:15;;;;;;;;;;;17.90;87.80;;;;;;5094870;28;19961;-46
2022/12/09 00:02:41;;;;;;;;;;;17.90;87.90;;;;;;5094851;28;20343;-50
2022/12/09 00:05:06;;;;;;;;;;;17.90;88.00;;;;;;5092802;28;19939;-49
2022/12/09 00:07:33;;;;;;;;;;;17.90;87.90;;;;;;5094714;28;19904;-47
2022/12/09 00:09:59;;;;;;;;;;;17.90;88.00;;;;;;5094839;28;20239;-48
2022/12/09 00:12:24;;;;;;;;;;;17.90;88.00;;;;;;5094313;28;19904;-46
2022/12/09 00:14:50;;;;;;;;;;;17.90;88.00;;;;;;5094558;28;20304;-47
2022/12/09 00:17:15;;;;;;;;;;;17.90;87.90;;;;;;5094450;28;19908;-46
2022/12/09 00:19:41;;;;;;;;;;;17.90;87.90;;;;;;5094545;28;19908;-46
2022/12/09 00:22:06;;;;;;;;;;;17.90;87.80;;;;;;5095374;28;20392;-46
2022/12/09 00:24:32;;;;;;;;;;;17.90;87.80;;;;;;5095243;28;19959;-47
2022/12/09 00:26:57;;;;;;;;;;;17.90;87.70;;;;;;5097725;28;19930;-48
2022/12/09 00:29:22;;;;;;;;;;;18.00;87.70;;;;;;5095475;28;19904;-46
2022/12/09 00:31:48;;;;;;;;;;;18.00;87.80;;;;;;5093035;28;19943;-47
2022/12/09 00:34:13;;;;;;;;;;;18.00;87.80;;;;;;5094033;28;19923;-47
2022/12/09 00:36:39;;;;;;;;;;;18.00;87.80;;;;;;5093073;28;20306;-46
2022/12/09 00:39:04;;;;;;;;;;;18.00;87.70;;;;;;5097043;28;19916;-46
2022/12/09 00:41:30;;;;;;;;;;;18.00;87.70;;;;;;5098441;28;19911;-47
2022/12/09 00:43:56;;;;;;;;;;;18.00;87.60;;;;;;5093487;28;19914;-47
2022/12/09 00:46:21;;;;;;;;;;;18.00;87.60;;;;;;5098607;28;19907;-49
2022/12/09 00:48:47;;;;;;;;;;;18.00;87.60;;;;;;5099924;28;19915;-48
2022/12/09 00:51:17;;;;;;;;;;;18.00;87.60;;;;;;5101218;28;19908;-46
2022/12/09 00:53:43;;;;;;;;;;;18.00;87.50;;;;;;5094276;28;19904;-48
2022/12/09 00:56:09;;;;;;;;;;;18.00;87.50;;;;;;5093297;28;19915;-46
2022/12/09 00:58:34;;;;;;;;;;;18.00;87.60;;;;;;5096525;28;19978;-48
2022/12/09 01:01:00;;;;;;;;;;;18.00;88.10;;;;;;5093236;28;19908;-48
2022/12/09 01:03:25;;;;;;;;;;;18.00;87.60;;;;;;5093768;28;19910;-47
2022/12/09 01:05:51;;;;;;;;;;;18.00;87.70;;;;;;5093104;28;19908;-48
2022/12/09 01:08:16;;;;;;;;;;;17.90;87.80;;;;;;5092803;28;19934;-48
2022/12/09 01:10:43;;;;;;;;;;;17.90;87.80;;;;;;5090479;28;19905;-50
2022/12/09 01:13:09;;;;;;;;;;;17.90;87.80;;;;;;5089695;28;19908;-49
2022/12/09 01:15:35;;;;;;;;;;;17.90;87.80;;;;;;5092900;28;19915;-49
2022/12/09 01:18:00;;;;;;;;;;;17.90;87.80;;;;;;5094262;28;19973;-50
2022/12/09 01:20:26;;;;;;;;;;;17.90;87.80;;;;;;5093590;28;19926;-50
2022/12/09 01:22:51;;;;;;;;;;;17.90;87.90;;;;;;5097812;28;19916;-49
2022/12/09 01:25:17;;;;;;;;;;;17.80;87.80;;;;;;5114080;28;19995;-47
2022/12/09 01:27:42;;;;;;;;;;;17.80;87.80;;;;;;5113932;28;20354;-47
2022/12/09 01:30:09;;;;;;;;;;;17.80;87.90;;;;;;5101706;28;20075;-47
2022/12/09 01:32:34;;;;;;;;;;;17.80;87.90;;;;;;5092192;28;19912;-49
2022/12/09 01:35:01;;;;;;;;;;;17.80;88.00;;;;;;5092147;28;19960;-47
2022/12/09 01:37:27;;;;;;;;;;;17.80;88.00;;;;;;5091912;28;19935;-47
2022/12/09 01:39:52;;;;;;;;;;;17.90;88.00;;;;;;5093957;28;19908;-48
2022/12/09 01:42:19;;;;;;;;;;;17.90;87.80;;;;;;5094297;28;19915;-47
2022/12/09 01:45:04;;;;;;;;;;;17.90;87.80;;;;;;5096019;28;19966;-49
2022/12/09 01:47:30;;;;;;;;;;;17.90;87.70;;;;;;5059818;28;19931;-48
2022/12/09 01:49:55;;;;;;;;;;;17.90;87.60;;;;;;5089751;28;20346;-47
2022/12/09 01:52:21;;;;;;;;;;;18.00;87.70;;;;;;5089903;28;19930;-47
2022/12/09 01:54:48;;;;;;;;;;;18.00;87.60;;;;;;5102217;28;19912;-46
2022/12/09 01:57:14;;;;;;;;;;;18.00;87.70;;;;;;5095661;28;19963;-51
2022/12/09 01:59:40;;;;;;;;;;;18.00;87.70;;;;;;5094369;28;19959;-50
2022/12/09 02:02:07;;;;;;;;;;;17.90;87.60;;;;;;5074019;28;19916;-48
2022/12/09 02:04:35;;;;;;;;;;;18.00;87.60;;;;;;5092184;28;19913;-51
2022/12/09 02:07:04;;;;;;;;;;;18.00;87.60;;;;;;5093896;28;19908;-47
2022/12/09 02:09:30;;;;;;;;;;;18.00;87.60;;;;;;5099472;28;19988;-47
2022/12/09 02:12:01;;;;;;;;;;;18.00;87.50;;;;;;5102398;28;19915;-51
2022/12/09 02:14:31;;;;;;;;;;;17.90;87.60;;;;;;5117351;28;20244;-48
2022/12/09 02:16:56;;;;;;;;;;;18.00;87.70;;;;;;5117188;28;19965;-52
2022/12/09 02:19:35;;;;;;;;;;;17.90;87.60;;;;;;5117564;28;19916;-46
2022/12/09 02:22:01;;;;;;;;;;;17.90;87.60;;;;;;5117497;28;19953;-48
2022/12/09 02:24:40;;;;;;;;;;;17.90;87.70;;;;;;5106493;28;19912;-47
2022/12/09 02:27:08;;;;;;;;;;;17.90;87.70;;;;;;5096832;28;19989;-47
2022/12/09 02:29:49;;;;;;;;;;;17.90;87.80;;;;;;5097172;28;19908;-47
2022/12/09 02:32:26;;;;;;;;;;;17.90;87.80;;;;;;5096762;28;19912;-48
2022/12/09 02:34:54;;;;;;;;;;;17.90;87.80;;;;;;5096444;28;19920;-51
2022/12/09 02:37:39;;;;;;;;;;;17.90;87.80;;;;;;5105127;28;20181;-50
2022/12/09 02:40:08;;;;;;;;;;;17.80;87.70;;;;;;5054599;28;19956;-47
2022/12/09 02:42:34;;;;;;;;;;;17.80;87.90;;;;;;5078430;28;20266;-48
2022/12/09 02:45:00;;;;;;;;;;;17.80;87.90;;;;;;5096394;28;19952;-48
2022/12/09 02:47:28;;;;;;;;;;;17.80;87.90;;;;;;5096307;28;19998;-50
2022/12/09 02:49:56;;;;;;;;;;;17.80;87.90;;;;;;5096341;28;19915;-52
2022/12/09 02:52:22;;;;;;;;;;;17.80;87.90;;;;;;5095837;28;20004;-49
2022/12/09 02:54:49;;;;;;;;;;;17.80;87.80;;;;;;5096480;28;20359;-48
2022/12/09 02:57:16;;;;;;;;;;;17.90;87.80;;;;;;5096209;28;19912;-52
2022/12/09 02:59:41;;;;;;;;;;;17.90;87.70;;;;;;5093670;28;19916;-46
2022/12/09 03:02:13;;;;;;;;;;;17.90;87.60;;;;;;5096054;28;19995;-47
2022/12/09 03:04:41;;;;;;;;;;;17.90;87.60;;;;;;5096140;28;19908;-49
2022/12/09 03:07:08;;;;;;;;;;;17.90;87.60;;;;;;5095998;28;19912;-49
2022/12/09 03:09:37;;;;;;;;;;;17.90;87.60;;;;;;5095731;28;19908;-49
2022/12/09 03:12:05;;;;;;;;;;;17.90;87.60;;;;;;5096066;28;19912;-47
2022/12/09 03:14:34;;;;;;;;;;;17.90;87.60;;;;;;5095863;28;19908;-46
2022/12/09 03:17:03;;;;;;;;;;;17.90;87.60;;;;;;5095518;28;19920;-46
2022/12/09 03:19:32;;;;;;;;;;;17.90;87.60;;;;;;5077062;28;20381;-48
2022/12/09 03:22:01;;;;;;;;;;;17.90;87.60;;;;;;5095934;28;19908;-47
2022/12/09 03:24:31;;;;;;;;;;;17.90;87.60;;;;;;5095479;28;19908;-47
2022/12/09 03:26:58;;;;;;;;;;;17.90;87.70;;;;;;5095539;28;19908;-47
2022/12/09 03:29:25;;;;;;;;;;;17.80;87.70;;;;;;5095507;28;19912;-50
2022/12/09 03:31:51;;;;;;;;;;;17.80;87.80;;;;;;5092919;28;20338;-47
2022/12/09 03:34:18;;;;;;;;;;;17.80;87.80;;;;;;5091266;28;19955;-48
2022/12/09 03:36:45;;;;;;;;;;;17.80;87.90;;;;;;5094014;28;19926;-49
2022/12/09 03:39:13;;;;;;;;;;;17.80;88.00;;;;;;5094363;28;20362;-49
2022/12/09 03:41:42;;;;;;;;;;;17.70;87.90;;;;;;5093695;28;19908;-49
2022/12/09 03:44:27;;;;;;;;;;;17.70;88.00;;;;;;5093454;28;20355;-48
2022/12/09 03:46:52;;;;;;;;;;;17.70;88.10;;;;;;5093304;28;19966;-49
2022/12/09 03:49:18;;;;;;;;;;;17.80;88.20;;;;;;5092966;28;19939;-48
2022/12/09 03:51:55;;;;;;;;;;;17.80;88.20;;;;;;5092915;28;19916;-49
2022/12/09 03:54:23;;;;;;;;;;;17.80;88.10;;;;;;5093502;28;20266;-48
2022/12/09 03:56:50;;;;;;;;;;;17.80;88.00;;;;;;5094307;28;19912;-51
2022/12/09 03:59:16;;;;;;;;;;;17.90;88.00;;;;;;5095216;28;19912;-47
2022/12/09 04:01:43;;;;;;;;;;;17.90;87.80;;;;;;5094869;28;20287;-49
2022/12/09 04:04:09;;;;;;;;;;;17.90;87.70;;;;;;5094880;28;19908;-49
2022/12/09 04:06:35;;;;;;;;;;;17.90;87.70;;;;;;5095349;28;19931;-47
2022/12/09 04:09:00;;;;;;;;;;;17.90;87.70;;;;;;5094634;28;20378;-51
2022/12/09 04:11:26;;;;;;;;;;;17.90;87.60;;;;;;5095298;28;19919;-49
2022/12/09 04:13:51;;;;;;;;;;;17.90;87.50;;;;;;5094407;28;20319;-47
2022/12/09 04:16:17;;;;;;;;;;;17.90;87.50;;;;;;5094821;28;19912;-49
2022/12/09 04:18:42;;;;;;;;;;;17.90;87.50;;;;;;5095175;28;20347;-48
2022/12/09 04:21:08;;;;;;;;;;;17.90;87.40;;;;;;5094467;28;19916;-48
2022/12/09 04:23:34;;;;;;;;;;;17.90;87.40;;;;;;5076574;28;19908;-49
2022/12/09 04:25:59;;;;;;;;;;;17.90;87.50;;;;;;5094756;28;19912;-48
2022/12/09 04:28:25;;;;;;;;;;;17.90;87.70;;;;;;5094793;28;20351;-50
2022/12/09 04:30:50;;;;;;;;;;;17.80;87.40;;;;;;5093286;28;19969;-49
2022/12/09 04:33:16;;;;;;;;;;;17.80;87.50;;;;;;5094047;28;19908;-53
2022/12/09 04:35:41;;;;;;;;;;;17.80;87.50;;;;;;5094463;28;19908;-47
2022/12/09 04:38:07;;;;;;;;;;;17.80;87.60;;;;;;5094448;28;20239;-48
2022/12/09 04:40:32;;;;;;;;;;;17.80;87.70;;;;;;5076380;28;19912;-49
2022/12/09 04:42:58;;;;;;;;;;;17.80;87.80;;;;;;5094199;28;19915;-52
2022/12/09 04:45:23;;;;;;;;;;;17.70;87.80;;;;;;5094372;28;19909;-50
2022/12/09 04:47:48;;;;;;;;;;;17.70;87.80;;;;;;5094129;28;20007;-48
2022/12/09 04:50:14;;;;;;;;;;;17.70;87.90;;;;;;5094060;28;19916;-50
2022/12/09 04:52:40;;;;;;;;;;;17.70;87.90;;;;;;5093911;28;19912;-50
2022/12/09 04:55:06;;;;;;;;;;;17.70;87.90;;;;;;5094212;28;19908;-50
2022/12/09 04:57:31;;;;;;;;;;;17.60;87.90;;;;;;5094217;28;20325;-48
2022/12/09 04:59:57;;;;;;;;;;;17.60;88.00;;;;;;5094308;28;19912;-47
2022/12/09 05:02:22;;;;;;;;;;;17.60;88.00;;;;;;5094209;28;20015;-52
2022/12/09 05:04:48;;;;;;;;;;;17.60;88.00;;;;;;5093934;28;19962;-47
2022/12/09 05:07:13;;;;;;;;;;;17.70;87.90;;;;;;5094193;28;20351;-48
2022/12/09 05:09:39;;;;;;;;;;;17.70;87.80;;;;;;5093817;28;19914;-51
2022/12/09 05:12:04;;;;;;;;;;;17.70;87.70;;;;;;5094088;28;19908;-51
2022/12/09 05:14:30;;;;;;;;;;;17.70;87.70;;;;;;5093741;28;19916;-49
2022/12/09 05:16:55;;;;;;;;;;;17.70;87.70;;;;;;5093991;28;19912;-48
2022/12/09 05:19:21;;;;;;;;;;;17.80;87.80;;;;;;5093982;28;19951;-53
2022/12/09 05:21:46;;;;;;;;;;;17.70;87.70;;;;;;5093750;28;19915;-47
2022/12/09 05:24:12;;;;;;;;;;;17.80;87.80;;;;;;5093972;28;20347;-48
2022/12/09 05:26:37;;;;;;;;;;;17.80;87.70;;;;;;5093707;28;19908;-49
2022/12/09 05:29:03;;;;;;;;;;;17.80;87.70;;;;;;5093556;28;20256;-48
2022/12/09 05:31:29;;;;;;;;;;;17.80;87.60;;;;;;5093843;28;19991;-48
2022/12/09 05:33:54;;;;;;;;;;;17.80;87.50;;;;;;5093303;28;19921;-50
2022/12/09 05:36:23;;;;;;;;;;;17.80;87.40;;;;;;5094066;28;20493;-48
2022/12/09 05:38:48;;;;;;;;;;;17.80;87.50;;;;;;5093795;28;20378;-48
2022/12/09 05:41:14;;;;;;;;;;;17.80;87.50;;;;;;5094701;28;19908;-48
2022/12/09 05:43:39;;;;;;;;;;;17.80;87.50;;;;;;5097581;28;20362;-50
2022/12/09 05:46:05;;;;;;;;;;;17.80;87.50;;;;;;5097588;28;20308;-49
2022/12/09 05:48:31;;;;;;;;;;;17.80;87.50;;;;;;5097593;28;19912;-52
2022/12/09 05:50:57;;;;;;;;;;;17.80;87.60;;;;;;5079643;28;19914;-50
2022/12/09 05:53:22;;;;;;;;;;;17.80;87.60;;;;;;5097610;28;20381;-51
2022/12/09 05:55:47;;;;;;;;;;;17.70;87.50;;;;;;5097540;28;19908;-48
2022/12/09 05:58:13;;;;;;;;;;;17.70;87.60;;;;;;5097054;28;19912;-49
2022/12/09 06:00:38;;;;;;;;;;;17.70;87.70;;;;;;5097294;28;19919;-49
2022/12/09 06:03:04;;;;;;;;;;;17.70;87.80;;;;;;5097338;28;19915;-49
2022/12/09 06:05:30;;;;;;;;;;;17.70;87.80;;;;;;5097335;28;19912;-50
2022/12/09 06:07:55;;;;;;;;;;;17.70;87.80;;;;;;5079099;28;20266;-49
2022/12/09 06:10:21;;;;;;;;;;;17.70;87.80;;;;;;5096892;28;20345;-50
2022/12/09 06:12:46;;;;;;;;;;;17.70;87.70;;;;;;5078907;28;19908;-48
2022/12/09 06:15:12;;;;;;;;;;;17.70;87.70;;;;;;5097066;28;20006;-48
2022/12/09 06:17:37;;;;;;;;;;;17.70;87.70;;;;;;5096676;28;20396;-47
2022/12/09 06:20:03;;;;;;;;;;;17.70;87.60;;;;;;5096915;28;19916;-47
2022/12/09 06:22:28;;;;;;;;;;;17.70;87.60;;;;;;5096632;28;19908;-50
2022/12/09 06:24:55;;;;;;;;;;;17.70;87.60;;;;;;5096907;28;19952;-51
2022/12/09 06:27:20;;;;;;;;;;;17.70;87.60;;;;;;5096258;28;19908;-51
2022/12/09 06:29:46;;;;;;;;;;;17.70;87.60;;;;;;5096482;28;19998;-49
2022/12/09 06:32:11;;;;;;;;;;;17.70;87.50;;;;;;5096646;28;19928;-50
2022/12/09 06:34:37;;;;;;;;;;;17.70;87.50;;;;;;5096126;28;19970;-49
2022/12/09 06:37:02;;;;;;;;;;;17.70;87.60;;;;;;5095919;28;19923;-48
2022/12/09 06:39:28;;;;;;;;;;;17.70;87.60;;;;;;5096006;28;19911;-50
2022/12/09 06:41:53;;;;;;;;;;;17.70;87.60;;;;;;5096511;28;20000;-47
2022/12/09 06:44:19;;;;;;;;;;;17.70;87.60;;;;;;5096526;28;19908;-51
2022/12/09 06:46:44;;;;;;;;;;;17.70;87.60;;;;;;5095875;28;19915;-48
2022/12/09 06:49:10;;;;;;;;;;;17.70;87.60;;;;;;5096286;28;19934;-48
2022/12/09 06:51:35;;;;;;;;;;;17.70;87.60;;;;;;5095809;28;19908;-49
2022/12/09 06:54:01;;;;;;;;;;;17.70;87.70;;;;;;5094626;28;19915;-48
2022/12/09 06:56:26;;;;;;;;;;;17.70;87.70;;;;;;5094066;28;19922;-50
2022/12/09 06:58:52;;;;;;;;;;;17.70;87.80;;;;;;5096095;28;20351;-53
2022/12/09 07:01:21;;;;;;;;;;;17.70;87.80;;;;;;5100707;28;19912;-49
2022/12/09 07:03:49;;;;;;;;;;;17.70;87.90;;;;;;5115816;28;19922;-51
2022/12/09 07:06:20;;;;;;;;;;;17.70;87.80;;;;;;5104824;28;19965;-54
2022/12/09 07:08:46;;;;;;;;;;;17.70;88.00;;;;;;5093829;28;19912;-53
2022/12/09 07:11:11;;;;;;;;;;;17.70;87.90;;;;;;5094103;28;20395;-53
2022/12/09 07:13:36;;;;;;;;;;;17.70;87.90;;;;;;5096743;28;19957;-53
2022/12/09 07:16:02;;;;;;;;;;;17.70;87.90;;;;;;5094611;28;20528;-51
2022/12/09 07:18:27;;;;;;;;;;;17.70;88.00;;;;;;5094741;28;19970;-52
2022/12/09 07:20:53;;;;;;;;;;;17.70;88.10;;;;;;5094480;28;20046;-51
2022/12/09 07:23:18;;;;;;;;;;;17.60;88.30;;;;;;5077028;28;20284;-49
2022/12/09 07:25:44;;;;;;;;;;;17.60;88.30;;;;;;5095529;28;19915;-49
2022/12/09 07:28:09;;;;;;;;;;;17.60;88.40;;;;;;5095187;28;19912;-50
2022/12/09 07:30:35;;;;;;;;;;;17.60;88.40;;;;;;5095152;28;20003;-53
2022/12/09 07:33:01;;;;;;;;;;;17.60;88.40;;;;;;5112431;28;19908;-49
2022/12/09 07:35:26;;;;;;;;;;;17.50;88.50;;;;;;5076998;28;19942;-49
2022/12/09 07:37:54;;;;;;;;;;;17.60;88.50;;;;;;5094810;28;19919;-48
2022/12/09 07:40:19;;;;;;;;;;;17.70;88.30;;;;;;5094833;28;19912;-49
2022/12/09 07:42:45;;;;;;;;;;;17.70;88.10;;;;;;5094883;28;19952;-49
2022/12/09 07:45:10;;;;;;;;;;;17.70;87.90;;;;;;5093172;28;19924;-47
2022/12/09 07:47:36;;;;;;;;;;;17.80;88.20;;;;;;5099664;28;19918;-48
2022/12/09 07:50:01;;;;;;;;;;;18.00;88.30;;;;;;5093207;28;19916;-46
2022/12/09 07:52:26;;;;;;;;;;;18.00;87.70;;;;;;5090773;28;19951;-51
2022/12/09 07:54:53;;;;;;;;;;;17.90;83.90;;;;;;5084724;28;19919;-50
2022/12/09 07:57:22;;;;;;;;;;;18.10;86.00;;;;;;5074087;28;19919;-49
2022/12/09 07:59:47;;;;;;;;;;;18.20;86.60;;;;;;5074617;28;19912;-48
2022/12/09 08:02:12;;;;;;;;;;;18.20;86.60;;;;;;5074160;28;19916;-49
2022/12/09 08:04:38;;;;;;;;;;;18.20;86.60;;;;;;5073980;28;19912;-49
2022/12/09 08:07:03;;;;;;;;;;;18.20;86.50;;;;;;5113891;28;20322;-48
2022/12/09 08:09:29;;;;;;;;;;;18.20;86.40;;;;;;5114690;28;20024;-50
2022/12/09 08:11:54;;;;;;;;;;;18.20;86.50;;;;;;5115133;28;20346;-52
2022/12/09 08:14:20;;;;;;;;;;;18.20;86.50;;;;;;5114497;28;19918;-50
2022/12/09 08:16:45;;;;;;;;;;;18.10;86.50;;;;;;5115077;28;19912;-49
2022/12/09 08:19:11;;;;;;;;;;;18.10;86.60;;;;;;5114682;28;20377;-53
2022/12/09 08:21:37;;;;;;;;;;;18.10;86.60;;;;;;5114746;28;19908;-50
2022/12/09 08:24:04;;;;;;;;;;;18.00;86.60;;;;;;5096295;28;19969;-52
2022/12/09 08:26:30;;;;;;;;;;;18.00;86.70;;;;;;5114690;28;19908;-48
2022/12/09 08:28:55;;;;;;;;;;;18.00;86.70;;;;;;5115094;28;19987;-50
2022/12/09 08:31:22;;;;;;;;;;;17.90;86.70;;;;;;5114351;28;19956;-51
2022/12/09 08:33:48;;;;;;;;;;;18.00;86.80;;;;;;5114276;28;19924;-51
2022/12/09 08:36:14;;;;;;;;;;;17.90;86.80;;;;;;5114514;28;19912;-50
2022/12/09 08:38:40;;;;;;;;;;;18.00;86.80;;;;;;5114305;28;20385;-51
2022/12/09 08:41:16;;;;;;;;;;;18.00;86.90;;;;;;5114582;28;19908;-47
2022/12/09 08:43:42;;;;;;;;;;;18.00;86.90;;;;;;5114402;28;19960;-48
2022/12/09 08:46:08;;;;;;;;;;;17.90;86.90;;;;;;5114568;28;20010;-49
2022/12/09 08:48:37;;;;;;;;;;;17.90;86.90;;;;;;5114167;28;19912;-48
2022/12/09 08:51:03;;;;;;;;;;;17.90;87.50;;;;;;5114481;28;19915;-51
2022/12/09 08:53:28;;;;;;;;;;;17.90;87.10;;;;;;5115022;28;19915;-50
2022/12/09 08:55:53;;;;;;;;;;;17.80;87.20;;;;;;5114426;28;20301;-50
2022/12/09 08:58:19;;;;;;;;;;;17.80;87.30;;;;;;5114144;28;20018;-52
2022/12/09 09:00:44;;;;;;;;;;;17.80;87.30;;;;;;5114327;28;19919;-51
2022/12/09 09:03:10;;;;;;;;;;;17.80;87.40;;;;;;5114303;28;19915;-49
2022/12/09 09:05:35;;;;;;;;;;;17.70;87.40;;;;;;5106354;28;20021;-48
2022/12/09 09:08:01;;;;;;;;;;;17.70;87.40;;;;;;5093957;28;19908;-53
2022/12/09 09:10:28;;;;;;;;;;;17.70;87.40;;;;;;5093927;28;19908;-52
2022/12/09 09:12:54;;;;;;;;;;;17.70;87.30;;;;;;5093621;28;19915;-48
2022/12/09 09:15:19;;;;;;;;;;;17.70;87.30;;;;;;5093933;28;20303;-50
2022/12/09 09:17:45;;;;;;;;;;;17.70;87.30;;;;;;5097022;28;19912;-48
2022/12/09 09:20:10;;;;;;;;;;;17.70;87.30;;;;;;5098191;28;20271;-50
2022/12/09 09:22:35;;;;;;;;;;;17.70;87.20;;;;;;5097888;28;20012;-51
2022/12/09 09:25:01;;;;;;;;;;;17.70;87.20;;;;;;5098015;28;20374;-50
2022/12/09 09:27:27;;;;;;;;;;;17.70;87.20;;;;;;5097841;28;19916;-50
2022/12/09 09:29:52;;;;;;;;;;;17.70;87.20;;;;;;5097726;28;20053;-51
2022/12/09 09:32:18;;;;;;;;;;;17.70;87.10;;;;;;5098238;28;19908;-50
2022/12/09 09:34:44;;;;;;;;;;;17.80;87.20;;;;;;5097713;28;20381;-51
2022/12/09 09:37:10;;;;;;;;;;;17.80;87.10;;;;;;5097343;28;20390;-50
2022/12/09 09:39:35;;;;;;;;;;;17.80;87.10;;;;;;5097354;28;19912;-51
2022/12/09 09:42:02;;;;;;;;;;;17.70;87.00;;;;;;5097691;28;19962;-51
2022/12/09 09:44:32;;;;;;;;;;;17.80;87.00;;;;;;5097757;28;19908;-52
2022/12/09 09:46:59;;;;;;;;;;;17.70;86.90;;;;;;5079280;28;19908;-52
2022/12/09 09:49:34;;;;;;;;;;;17.80;87.00;;;;;;5097168;28;19908;-49
2022/12/09 09:52:03;;;;;;;;;;;17.80;87.00;;;;;;5097529;28;19940;-49
2022/12/09 09:54:30;;;;;;;;;;;17.80;87.10;;;;;;5097032;28;20328;-51
2022/12/09 09:57:03;;;;;;;;;;;17.70;87.50;;;;;;5078903;28;20033;-50
2022/12/09 09:59:37;;;;;;;;;;;17.80;87.00;;;;;;5097103;28;19912;-48
2022/12/09 10:02:15;;;;;;;;;;;17.80;87.10;;;;;;5097240;28;19912;-50
2022/12/09 10:04:58;;;;;;;;;;;17.70;87.00;;;;;;5096706;28;20002;-50
2022/12/09 10:07:45;;;;;;;;;;;17.70;87.10;;;;;;5076875;28;19908;-48
2022/12/09 10:10:16;;;;;;;;;;;17.70;87.20;;;;;;5076401;28;20363;-48
2022/12/09 10:12:54;;;;;;;;;;;17.70;87.30;;;;;;5076883;28;19909;-50
2022/12/09 10:15:23;;;;;;;;;;;17.70;87.30;;;;;;5076630;28;19909;-49
2022/12/09 10:17:51;;;;;;;;;;;17.60;87.40;;;;;;5076446;28;20312;-50
2022/12/09 10:20:22;;;;;;;;;;;17.60;87.50;;;;;;5076331;28;19913;-50
2022/12/09 10:22:53;;;;;;;;;;;17.60;87.60;;;;;;5076595;28;19909;-48
2022/12/09 10:25:21;;;;;;;;;;;17.60;87.60;;;;;;5077057;28;19909;-49
2022/12/09 10:28:03;;;;;;;;;;;17.60;87.60;;;;;;5076195;28;19918;-50
2022/12/09 10:30:29;;;;;;;;;;;17.50;87.50;;;;;;5076507;28;19916;-51
2022/12/09 10:32:54;;;;;;;;;;;17.60;87.60;;;;;;5076803;28;20011;-52
2022/12/09 10:35:20;;;;;;;;;;;17.60;87.50;;;;;;5076835;28;20317;-49
2022/12/09 10:37:46;;;;;;;;;;;17.60;87.50;;;;;;5057845;28;19962;-52
2022/12/09 10:40:30;;;;;;;;;;;17.60;87.40;;;;;;5076162;28;20007;-52
2022/12/09 10:45:53;;;;;;;;;;;17.70;87.20;;;;;;5075866;28;20299;-49
2022/12/09 10:48:29;;;;;;;;;;;17.70;87.20;;;;;;5080803;28;19935;-51
2022/12/09 10:51:00;;;;;;;;;;;17.70;87.20;;;;;;5095175;28;20428;-48
2022/12/09 10:53:27;;;;;;;;;;;17.70;87.10;;;;;;5095090;28;19935;-51
2022/12/09 10:55:53;;;;;;;;;;;17.70;87.00;;;;;;5089803;28;19912;-48
2022/12/09 10:58:21;;;;;;;;;;;17.70;87.20;;;;;;5093706;28;19969;-50
2022/12/09 11:01:14;;;;;;;;;;;17.60;86.00;;;;;;5096137;28;19926;-48
2022/12/09 11:03:39;;;;;;;;;;;17.70;86.80;;;;;;5090916;28;19939;-51
2022/12/09 11:06:11;;;;;;;;;;;17.70;86.90;;;;;;5107141;28;20354;-53
2022/12/09 11:08:39;;;;;;;;;;;17.70;86.90;;;;;;5106406;28;20068;-50
2022/12/09 11:11:04;;;;;;;;;;;17.70;86.90;;;;;;5095735;28;19908;-49
2022/12/09 11:13:37;;;;;;;;;;;17.70;86.90;;;;;;5095629;28;20281;-47
2022/12/09 11:16:06;;;;;;;;;;;17.70;86.80;;;;;;5095676;28;19919;-45
2022/12/09 11:18:35;;;;;;;;;;;17.70;86.80;;;;;;5095500;28;20002;-47
2022/12/09 11:21:02;;;;;;;;;;;17.70;86.80;;;;;;5095374;28;19912;-49
2022/12/09 11:23:28;;;;;;;;;;;17.70;86.80;;;;;;5098553;28;19912;-48
2022/12/09 11:25:56;;;;;;;;;;;17.70;86.70;;;;;;5086450;28;19973;-47
2022/12/09 11:28:21;;;;;;;;;;;17.70;86.70;;;;;;5095564;28;19908;-46
2022/12/09 11:30:48;;;;;;;;;;;17.70;86.70;;;;;;5077831;28;20333;-49
2022/12/09 11:33:14;;;;;;;;;;;17.70;86.60;;;;;;5106953;28;19954;-46
2022/12/09 11:35:42;;;;;;;;;;;17.70;86.70;;;;;;5093125;28;20324;-48
2022/12/09 11:38:16;;;;;;;;;;;17.70;86.60;;;;;;5094259;28;19916;-50
2022/12/09 11:40:42;;;;;;;;;;;17.70;86.70;;;;;;5092891;28;20380;-48
2022/12/09 11:43:08;;;;;;;;;;;17.70;86.70;;;;;;5114996;28;19912;-48
2022/12/09 11:45:35;;;;;;;;;;;17.70;86.70;;;;;;5104451;28;19912;-47
2022/12/09 11:48:04;;;;;;;;;;;17.70;86.80;;;;;;5094853;28;19912;-46
2022/12/09 11:50:31;;;;;;;;;;;17.60;86.80;;;;;;5093835;28;19955;-50
2022/12/09 11:53:06;;;;;;;;;;;17.60;86.80;;;;;;5093762;28;19912;-49
2022/12/09 11:55:33;;;;;;;;;;;17.60;86.70;;;;;;5091654;28;19920;-47
2022/12/09 11:58:00;;;;;;;;;;;17.60;86.70;;;;;;5109846;28;19915;-49
2022/12/09 12:00:39;;;;;;;;;;;17.60;86.70;;;;;;5097695;28;19916;-47
2022/12/09 12:03:11;;;;;;;;;;;17.60;86.60;;;;;;5094466;28;19908;-49
2022/12/09 12:05:39;;;;;;;;;;;17.70;86.70;;;;;;5094095;28;19908;-47
2022/12/09 12:08:11;;;;;;;;;;;17.60;86.60;;;;;;5094155;28;19912;-48
2022/12/09 12:10:39;;;;;;;;;;;17.60;86.50;;;;;;5094685;28;19930;-47
2022/12/09 12:13:05;;;;;;;;;;;17.70;86.60;;;;;;5094496;28;19916;-49
2022/12/09 12:15:50;;;;;;;;;;;17.60;86.50;;;;;;5086110;28;19911;-48
2022/12/09 12:18:18;;;;;;;;;;;17.70;86.50;;;;;;5111657;28;19920;-49
2022/12/09 12:21:00;;;;;;;;;;;17.60;86.50;;;;;;5114410;28;19918;-47
2022/12/09 12:23:46;;;;;;;;;;;17.60;86.50;;;;;;5098933;28;19916;-49
2022/12/09 12:26:15;;;;;;;;;;;17.60;86.50;;;;;;5053596;28;19913;-49
2022/12/09 12:28:43;;;;;;;;;;;17.60;86.50;;;;;;5092430;28;19912;-48
2022/12/09 12:31:17;;;;;;;;;;;17.60;86.50;;;;;;5093248;28;19916;-48
2022/12/09 12:33:46;;;;;;;;;;;17.60;86.60;;;;;;5093613;28;20351;-49
2022/12/09 12:36:30;;;;;;;;;;;17.60;86.50;;;;;;5092257;28;19919;-46
2022/12/09 12:39:01;;;;;;;;;;;17.60;86.60;;;;;;5094669;28;19962;-47
2022/12/09 12:41:36;;;;;;;;;;;17.60;86.60;;;;;;5112986;28;20370;-52
2022/12/09 12:47:07;;;;;;;;;;;17.50;86.70;;;;;;5091432;28;19922;-48
2022/12/09 12:49:39;;;;;;;;;;;17.50;86.80;;;;;;5100631;28;20382;-50
2022/12/09 12:52:23;;;;;;;;;;;17.50;86.90;;;;;;5091914;28;19919;-48
2022/12/09 12:54:51;;;;;;;;;;;17.50;86.90;;;;;;5103165;28;19919;-51
2022/12/09 12:57:28;;;;;;;;;;;17.50;86.90;;;;;;5092212;28;20015;-52
2022/12/09 13:00:02;;;;;;;;;;;17.50;86.10;;;;;;5090696;28;19923;-51
2022/12/09 13:02:33;;;;;;;;;;;17.50;86.70;;;;;;5093119;28;19915;-48
2022/12/09 13:05:14;;;;;;;;;;;17.50;86.80;;;;;;5093522;28;19915;-49
2022/12/09 13:07:48;;;;;;;;;;;17.50;86.70;;;;;;5111809;28;19908;-50
2022/12/09 13:10:31;;;;;;;;;;;17.50;86.60;;;;;;5112141;28;19915;-48
2022/12/09 13:12:58;;;;;;;;;;;17.60;86.60;;;;;;5111992;28;19908;-51
2022/12/09 13:15:30;;;;;;;;;;;17.60;86.50;;;;;;5093653;28;19948;-51
2022/12/09 13:17:58;;;;;;;;;;;17.60;86.40;;;;;;5112440;28;19919;-51
2022/12/09 13:20:27;;;;;;;;;;;17.60;86.30;;;;;;5113983;28;20055;-48
2022/12/09 13:22:56;;;;;;;;;;;17.70;86.30;;;;;;5095661;28;20355;-51
2022/12/09 13:25:25;;;;;;;;;;;17.70;86.20;;;;;;5113912;28;19920;-50
2022/12/09 13:27:54;;;;;;;;;;;17.60;86.20;;;;;;5095629;28;19934;-48
2022/12/09 13:30:29;;;;;;;;;;;17.70;86.20;;;;;;5113855;28;19908;-50
2022/12/09 13:33:16;;;;;;;;;;;17.60;86.20;;;;;;5113771;28;19915;-51
2022/12/09 13:35:53;;;;;;;;;;;17.60;86.20;;;;;;5113903;28;20335;-51
2022/12/09 13:38:22;;;;;;;;;;;17.60;86.20;;;;;;5109999;28;19918;-50
2022/12/09 13:40:47;;;;;;;;;;;17.60;86.20;;;;;;5081370;28;20006;-46
2022/12/09 13:43:24;;;;;;;;;;;17.60;86.20;;;;;;5092324;28;20325;-56
2022/12/09 13:45:51;;;;;;;;;;;17.60;86.20;;;;;;5111023;28;20357;-49
2022/12/09 13:48:17;;;;;;;;;;;17.60;86.30;;;;;;5095869;28;19912;-52
2022/12/09 13:50:54;;;;;;;;;;;17.60;86.30;;;;;;5096052;28;19918;-51
2022/12/09 13:53:20;;;;;;;;;;;17.60;86.20;;;;;;5084029;28;19916;-50
2022/12/09 13:55:53;;;;;;;;;;;17.60;86.20;;;;;;5089761;28;19912;-52
2022/12/09 13:58:37;;;;;;;;;;;17.60;86.30;;;;;;5090470;28;19916;-51
2022/12/09 14:01:12;;;;;;;;;;;17.60;86.30;;;;;;5088335;28;19920;-51
2022/12/09 14:03:47;;;;;;;;;;;17.50;86.40;;;;;;5092594;28;20029;-48
2022/12/09 14:06:18;;;;;;;;;;;17.50;86.40;;;;;;5107888;28;19912;-47
2022/12/09 14:08:47;;;;;;;;;;;17.50;86.50;;;;;;5109764;28;20415;-47
2022/12/09 14:11:31;;;;;;;;;;;17.50;86.60;;;;;;5092654;28;20354;-48
2022/12/09 14:14:32;;;;;;;;;;;17.50;86.70;;;;;;5110677;28;20320;-47
2022/12/09 14:16:58;;;;;;;;;;;17.40;86.60;;;;;;5107270;28;19915;-49
2022/12/09 14:19:24;;;;;;;;;;;17.40;86.70;;;;;;5097104;28;19924;-50
2022/12/09 14:22:11;;;;;;;;;;;17.50;86.60;;;;;;5094745;28;20338;-48
2022/12/09 14:24:37;;;;;;;;;;;17.50;86.60;;;;;;5096373;28;19948;-46
2022/12/09 14:27:02;;;;;;;;;;;17.50;86.40;;;;;;5111099;28;19920;-47